Terminal Aerodrome Forecast
Issued by NWS

Home | Current Version | Previous Version | Graphics & Text | Print | Product List | Glossary On
Versions: 1 2 3 4 5 6 7 8 9 10 11 12 13 14 15 16 17 18 19 20 21 22
000
FTUS43 KMPX 231140
TAFRWF
TAF
KRWF 231140Z 2312/2412 18014KT P6SM -SHRA SCT060 OVC150
      WS020/18045KT
     FM231400 18016G22KT P6SM SCT025 OVC040
     FM231900 19014G20KT P6SM VCSH OVC050
      TEMPO 2320/2323 6SM -TSRA OVC040CB
     FM240100 21008KT P6SM SCT080=

USA.gov is the U.S. government's official web portal to all federal, state and local government web resources and services.